createdAt,value
2018-07-08T00:02:13.083Z,7.07
2018-07-08T00:04:42.992Z,6.80
2018-07-08T00:07:12.796Z,6.17
2018-07-08T00:09:42.676Z,7.17
2018-07-08T00:12:12.802Z,5.73
2018-07-08T00:14:42.744Z,6.37
2018-07-08T00:17:12.804Z,7.63
2018-07-08T00:19:43.944Z,6.13
2018-07-08T00:22:13.981Z,8.50
2018-07-08T00:24:44.433Z,6.03
2018-07-08T00:27:14.513Z,5.93
2018-07-08T00:29:44.425Z,5.90
2018-07-08T00:32:14.443Z,5.53
2018-07-08T00:34:44.709Z,6.90
2018-07-08T00:37:14.884Z,5.67
2018-07-08T00:39:44.924Z,6.87
2018-07-08T00:42:14.925Z,7.03
2018-07-08T00:44:44.807Z,6.83
2018-07-08T00:47:14.908Z,6.33
2018-07-08T00:49:44.825Z,5.97
2018-07-08T00:52:15.157Z,8.13
2018-07-08T00:54:45.234Z,6.30
2018-07-08T00:57:15.773Z,6.17
2018-07-08T00:59:46.278Z,6.63
2018-07-08T01:02:16.567Z,6.93
2018-07-08T01:04:46.746Z,6.40
2018-07-08T01:07:16.915Z,6.63
2018-07-08T01:09:46.691Z,8.57
2018-07-08T01:12:16.596Z,7.77
2018-07-08T01:14:46.780Z,6.03
2018-07-08T01:17:16.776Z,6.53
2018-07-08T01:19:46.645Z,8.40
2018-07-08T01:22:16.725Z,7.73
2018-07-08T01:24:46.977Z,6.50
2018-07-08T01:27:17.013Z,7.37
2018-07-08T01:29:47.229Z,6.83
2018-07-08T01:32:18.034Z,6.40
2018-07-08T01:34:48.609Z,5.60
2018-07-08T01:37:19.025Z,10.67
2018-07-08T01:39:49.056Z,5.57
2018-07-08T01:42:19.145Z,8.23
2018-07-08T01:44:49.259Z,7.47
2018-07-08T01:47:19.552Z,5.90
2018-07-08T01:49:49.866Z,7.80
2018-07-08T01:52:20.104Z,8.27
2018-07-08T01:54:50.275Z,7.17
2018-07-08T01:57:21.508Z,7.63
2018-07-08T01:59:52.385Z,5.70
2018-07-08T02:02:23.041Z,7.47
2018-07-08T02:04:53.177Z,8.43
2018-07-08T02:07:22.981Z,6.63
2018-07-08T02:09:53.123Z,5.33
2018-07-08T02:12:23.533Z,8.10
2018-07-08T02:14:54.068Z,6.77
2018-07-08T02:17:23.911Z,6.47
2018-07-08T02:19:54.088Z,7.47
2018-07-08T02:22:24.243Z,7.40
2018-07-08T02:24:54.203Z,7.80
2018-07-08T02:27:24.963Z,7.47
2018-07-08T02:29:54.945Z,7.40
2018-07-08T02:32:25.595Z,7.00
2018-07-08T02:34:55.835Z,7.60
2018-07-08T02:37:25.922Z,6.87
2018-07-08T02:39:55.977Z,7.20
2018-07-08T02:42:26.103Z,6.67
2018-07-08T02:44:56.577Z,7.97
2018-07-08T02:47:26.750Z,6.77
2018-07-08T02:49:57.007Z,6.90
2018-07-08T02:52:26.916Z,6.10
2018-07-08T02:54:57.184Z,9.47
2018-07-08T02:57:27.243Z,6.93
2018-07-08T02:59:57.233Z,9.03
2018-07-08T03:02:27.533Z,6.60
2018-07-08T03:04:58.091Z,6.23
2018-07-08T03:07:28.157Z,7.47
2018-07-08T03:09:57.940Z,6.60
2018-07-08T03:12:27.780Z,6.67
2018-07-08T03:14:58.054Z,6.83
2018-07-08T03:17:28.060Z,8.33
2018-07-08T03:19:58.513Z,6.87
2018-07-08T03:22:28.463Z,6.73
2018-07-08T03:24:58.375Z,6.50
2018-07-08T03:27:28.342Z,7.23
2018-07-08T03:29:58.351Z,7.30
2018-07-08T03:32:28.643Z,8.77
2018-07-08T03:34:58.711Z,7.90
2018-07-08T03:37:28.763Z,9.80
2018-07-08T03:39:58.708Z,7.20
2018-07-08T03:42:28.677Z,7.30
2018-07-08T03:44:58.794Z,6.50
2018-07-08T03:47:28.828Z,6.80
2018-07-08T03:49:58.733Z,8.83
2018-07-08T03:52:28.899Z,6.73
2018-07-08T03:54:59.063Z,9.33
2018-07-08T03:57:28.975Z,7.10
2018-07-08T03:59:59.089Z,6.67
2018-07-08T04:02:29.375Z,7.03
2018-07-08T04:04:59.428Z,5.73
2018-07-08T04:07:29.517Z,5.77
2018-07-08T04:09:59.232Z,5.57
2018-07-08T04:12:29.227Z,6.27
2018-07-08T04:14:59.151Z,5.60
2018-07-08T04:17:29.126Z,6.93
2018-07-08T04:19:59.107Z,5.43
2018-07-08T04:22:29.487Z,6.90
2018-07-08T04:24:59.364Z,4.87
2018-07-08T04:27:29.368Z,6.20
2018-07-08T04:29:59.397Z,5.17
2018-07-08T04:32:29.376Z,6.47
2018-07-08T04:35:00.404Z,5.47
2018-07-08T04:37:30.301Z,6.67
2018-07-08T04:40:00.321Z,6.87
2018-07-08T04:42:30.313Z,8.53
2018-07-08T04:45:00.659Z,7.33
2018-07-08T04:47:30.504Z,6.57
2018-07-08T04:50:01.406Z,11.27
2018-07-08T04:52:31.765Z,12.57
2018-07-08T04:55:02.181Z,7.97
2018-07-08T04:57:32.069Z,8.27
2018-07-08T05:00:02.109Z,7.20
2018-07-08T05:02:32.135Z,5.43
2018-07-08T05:05:02.194Z,6.80
2018-07-08T05:07:31.999Z,4.97
2018-07-08T05:10:01.952Z,6.40
2018-07-08T05:12:32.099Z,8.50
2018-07-08T05:15:03.232Z,6.70
2018-07-08T05:17:33.411Z,6.10
2018-07-08T05:20:03.394Z,6.77
2018-07-08T05:22:33.285Z,8.90
2018-07-08T05:25:03.195Z,7.13
2018-07-08T05:27:33.729Z,7.10
2018-07-08T05:30:03.748Z,5.57
2018-07-08T05:32:33.960Z,13.37
2018-07-08T05:35:04.685Z,6.13
2018-07-08T05:37:34.662Z,6.53
2018-07-08T05:40:05.049Z,5.90
2018-07-08T05:42:35.038Z,6.73
2018-07-08T05:45:04.904Z,5.37
2018-07-08T05:47:34.972Z,5.80
2018-07-08T05:50:06.139Z,5.67
2018-07-08T05:52:36.197Z,6.40
2018-07-08T05:55:06.349Z,5.67
2018-07-08T05:57:37.015Z,5.43
2018-07-08T06:00:07.189Z,8.57
2018-07-08T06:02:37.385Z,5.53
2018-07-08T06:05:07.628Z,5.93
2018-07-08T06:07:37.575Z,9.00
2018-07-08T06:10:07.569Z,6.83
2018-07-08T06:12:37.829Z,9.20
2018-07-08T06:15:08.055Z,5.23
2018-07-08T06:17:38.124Z,7.00
2018-07-08T06:20:10.180Z,5.43
2018-07-08T06:22:40.294Z,8.70
2018-07-08T06:25:10.737Z,4.70
2018-07-08T06:27:40.979Z,4.70
2018-07-08T06:30:10.964Z,7.40
2018-07-08T06:32:41.270Z,7.13
2018-07-08T06:35:11.656Z,6.57
2018-07-08T06:37:42.740Z,4.80
2018-07-08T06:40:13.046Z,8.00
2018-07-08T06:42:43.352Z,5.20
2018-07-08T06:45:13.188Z,5.87
2018-07-08T06:47:43.408Z,8.33
2018-07-08T06:50:13.360Z,10.13
2018-07-08T06:52:43.449Z,11.07
2018-07-08T06:55:13.325Z,10.90
2018-07-08T06:57:44.499Z,11.20
2018-07-08T07:00:14.321Z,6.90
2018-07-08T07:02:44.305Z,8.63
2018-07-08T07:05:14.326Z,8.43
2018-07-08T07:07:44.454Z,9.53
2018-07-08T07:10:14.189Z,8.13
2018-07-08T07:12:44.408Z,6.60
2018-07-08T07:15:14.392Z,9.20
2018-07-08T07:17:44.471Z,9.53
2018-07-08T07:20:14.365Z,8.13
2018-07-08T07:22:44.304Z,12.97
2018-07-08T07:25:14.468Z,11.10
2018-07-08T07:27:44.748Z,9.73
2018-07-08T07:30:14.668Z,9.23
2018-07-08T07:32:44.746Z,6.77
2018-07-08T07:35:15.871Z,7.73
2018-07-08T07:37:45.846Z,7.37
2018-07-08T07:40:15.705Z,7.80
2018-07-08T07:42:45.586Z,8.27
2018-07-08T07:45:15.458Z,33.77
2018-07-08T07:47:45.415Z,11.13
2018-07-08T07:50:15.412Z,9.13
2018-07-08T07:52:45.424Z,12.50
2018-07-08T07:55:15.961Z,9.53
2018-07-08T07:57:46.269Z,7.23
2018-07-08T08:00:16.290Z,6.23
2018-07-08T08:02:46.203Z,6.70
2018-07-08T08:05:16.250Z,11.30
2018-07-08T08:07:45.973Z,7.23
2018-07-08T08:10:15.680Z,8.70
2018-07-08T08:12:45.568Z,10.63
2018-07-08T08:15:15.640Z,9.97
2018-07-08T08:17:45.544Z,9.63
2018-07-08T08:20:15.451Z,9.07
2018-07-08T08:22:45.502Z,11.40
2018-07-08T08:25:15.689Z,7.53
2018-07-08T08:27:46.273Z,9.10
2018-07-08T08:30:16.996Z,6.47
2018-07-08T08:32:47.167Z,8.00
2018-07-08T08:35:19.177Z,11.47
2018-07-08T08:37:54.196Z,14.33
2018-07-08T08:40:25.287Z,8.40
2018-07-08T08:42:55.643Z,10.83
2018-07-08T08:45:26.982Z,8.37
2018-07-08T08:47:57.117Z,9.40
2018-07-08T08:50:27.068Z,12.33
2018-07-08T08:52:57.417Z,12.47
2018-07-08T08:55:27.477Z,19.97
2018-07-08T08:57:57.527Z,12.73
2018-07-08T09:00:28.190Z,12.97
2018-07-08T09:02:58.546Z,10.13
2018-07-08T09:05:29.496Z,13.50
2018-07-08T09:07:59.460Z,6.93
2018-07-08T09:10:29.459Z,7.13
2018-07-08T09:13:00.717Z,6.00
2018-07-08T09:15:31.396Z,5.67
2018-07-08T09:18:01.657Z,6.30
2018-07-08T09:20:31.485Z,8.87
2018-07-08T09:23:02.048Z,5.87
2018-07-08T09:25:32.110Z,7.40
2018-07-08T09:28:02.360Z,6.90
2018-07-08T09:30:33.078Z,6.07
2018-07-08T09:33:03.647Z,6.17
2018-07-08T09:35:34.153Z,8.60
2018-07-08T09:38:04.308Z,5.63
2018-07-08T09:40:34.157Z,7.93
2018-07-08T09:43:03.757Z,8.10
2018-07-08T09:45:34.055Z,9.70
2018-07-08T09:48:03.888Z,7.13
2018-07-08T09:50:34.850Z,11.40
2018-07-08T09:53:04.797Z,5.10
2018-07-08T09:55:36.664Z,9.10
2018-07-08T09:58:07.717Z,7.20
2018-07-08T10:00:38.635Z,5.47
2018-07-08T10:03:11.590Z,6.57
2018-07-08T10:05:42.073Z,7.60
2018-07-08T10:08:12.646Z,7.07
2018-07-08T10:10:42.617Z,8.83
2018-07-08T10:13:12.593Z,7.63
2018-07-08T10:15:43.885Z,5.77
2018-07-08T10:18:13.953Z,5.80
2018-07-08T10:20:44.160Z,8.77
2018-07-08T10:23:14.476Z,6.17
2018-07-08T10:25:45.164Z,7.27
2018-07-08T10:28:16.640Z,7.07
2018-07-08T10:30:46.933Z,7.13
2018-07-08T10:33:17.395Z,9.33
2018-07-08T10:36:04.871Z,6.07
2018-07-08T10:38:36.894Z,5.77
2018-07-08T10:41:06.947Z,8.43
2018-07-08T10:43:39.796Z,6.87
2018-07-08T10:46:09.904Z,5.70
2018-07-08T10:48:40.231Z,7.30
2018-07-08T10:51:10.355Z,6.23
2018-07-08T10:53:40.355Z,6.43
2018-07-08T10:56:10.276Z,8.40
2018-07-08T10:58:40.269Z,5.77
2018-07-08T11:01:10.676Z,6.17
2018-07-08T11:03:40.906Z,7.33
2018-07-08T11:06:12.452Z,4.90
2018-07-08T11:08:43.056Z,6.00
2018-07-08T11:11:13.585Z,6.40
2018-07-08T11:13:44.604Z,5.30
2018-07-08T11:16:15.790Z,4.97
2018-07-08T11:18:45.820Z,9.07
2018-07-08T11:21:15.976Z,6.90
2018-07-08T11:23:47.426Z,7.70
2018-07-08T11:26:17.549Z,6.47
2018-07-08T11:28:49.298Z,6.57
2018-07-08T11:31:19.451Z,6.33
2018-07-08T11:33:49.981Z,8.13
2018-07-08T11:36:21.676Z,5.90
2018-07-08T11:38:55.417Z,7.50
2018-07-08T11:41:25.495Z,6.40
2018-07-08T11:43:56.592Z,6.33
2018-07-08T11:49:02.242Z,9.20
2018-07-08T11:51:32.270Z,8.00
2018-07-08T11:54:02.473Z,7.27
2018-07-08T11:59:14.285Z,5.33
2018-07-08T12:01:44.946Z,5.23
2018-07-08T12:04:15.946Z,5.97
2018-07-08T12:06:45.969Z,5.70
2018-07-08T12:09:15.732Z,9.00
2018-07-08T12:11:46.503Z,6.27
2018-07-08T12:14:16.681Z,6.70
2018-07-08T12:16:46.659Z,5.57
2018-07-08T12:19:16.583Z,6.77
2018-07-08T12:21:46.629Z,7.20
2018-07-08T12:24:16.944Z,5.87
2018-07-08T12:26:47.200Z,5.60
2018-07-08T12:29:17.461Z,6.33
2018-07-08T12:31:47.674Z,6.17
2018-07-08T12:34:17.493Z,6.30
2018-07-08T12:36:47.437Z,7.83
2018-07-08T12:39:17.393Z,6.20
2018-07-08T12:41:47.744Z,8.20
2018-07-08T12:44:17.850Z,7.33
2018-07-08T12:49:15.823Z,8.47
2018-07-08T12:51:45.920Z,6.60
2018-07-08T12:54:16.225Z,6.97
2018-07-08T12:56:46.117Z,5.50
2018-07-08T12:59:16.246Z,5.63
2018-07-08T13:01:46.220Z,7.80
2018-07-08T13:04:16.722Z,4.97
2018-07-08T13:06:46.643Z,6.13
2018-07-08T13:09:16.584Z,6.10
2018-07-08T13:11:46.503Z,5.30
2018-07-08T13:14:16.411Z,5.83
2018-07-08T13:16:46.326Z,6.77
2018-07-08T13:19:16.223Z,6.90
2018-07-08T13:21:46.177Z,6.83
2018-07-08T13:24:16.342Z,9.07
2018-07-08T13:26:46.383Z,5.67
2018-07-08T13:29:16.681Z,7.07
2018-07-08T13:31:46.552Z,6.83
2018-07-08T13:34:16.441Z,6.30
2018-07-08T13:36:46.496Z,5.60
2018-07-08T13:39:16.705Z,5.10
2018-07-08T13:41:47.371Z,4.83
2018-07-08T13:44:17.282Z,6.57
2018-07-08T13:46:47.313Z,6.00
2018-07-08T13:49:17.400Z,5.53
2018-07-08T13:51:47.356Z,5.27
2018-07-08T13:54:17.317Z,8.10
2018-07-08T13:56:47.516Z,6.93
2018-07-08T13:59:17.500Z,6.47
2018-07-08T14:01:47.446Z,6.20
2018-07-08T14:04:17.482Z,6.27
2018-07-08T14:06:47.508Z,6.17
2018-07-08T14:09:17.381Z,6.23
2018-07-08T14:11:47.427Z,7.10
2018-07-08T14:14:17.327Z,7.87
2018-07-08T14:16:47.719Z,6.80
2018-07-08T14:19:17.824Z,6.37
2018-07-08T14:21:48.135Z,6.47
2018-07-08T14:24:18.145Z,6.20
2018-07-08T14:26:48.264Z,6.73
2018-07-08T14:29:18.365Z,7.67
2018-07-08T14:31:48.264Z,7.90
2018-07-08T14:34:18.211Z,8.03
2018-07-08T14:36:49.008Z,8.00
2018-07-08T14:39:18.974Z,9.20
2018-07-08T14:41:48.878Z,8.73
2018-07-08T14:44:18.763Z,8.60
2018-07-08T14:46:49.061Z,7.80
2018-07-08T14:49:18.971Z,8.90
2018-07-08T14:51:48.834Z,8.40
2018-07-08T14:54:18.688Z,9.70
2018-07-08T14:56:48.544Z,9.60
2018-07-08T14:59:18.820Z,9.30
2018-07-08T15:01:49.016Z,9.47
2018-07-08T15:04:18.999Z,9.60
2018-07-08T15:06:48.985Z,11.97
2018-07-08T15:09:18.864Z,13.93
2018-07-08T15:11:49.172Z,10.40
2018-07-08T15:14:19.130Z,10.27
2018-07-08T15:16:49.104Z,10.20
2018-07-08T15:19:19.109Z,11.60
2018-07-08T15:21:49.081Z,11.57
2018-07-08T15:24:19.037Z,12.27
2018-07-08T15:26:49.408Z,15.87
2018-07-08T15:29:20.093Z,12.93
2018-07-08T15:31:50.061Z,13.07
2018-07-08T15:34:20.052Z,13.03
2018-07-08T15:36:50.940Z,13.47
2018-07-08T15:39:20.895Z,15.10
2018-07-08T15:41:51.043Z,14.57
2018-07-08T15:44:21.756Z,17.77
2018-07-08T15:46:52.154Z,13.37
2018-07-08T15:49:22.154Z,13.93
2018-07-08T15:51:52.087Z,13.40
2018-07-08T15:54:22.230Z,14.40
2018-07-08T15:56:52.238Z,14.20
2018-07-08T15:59:22.307Z,17.73
2018-07-08T16:01:52.651Z,13.90
2018-07-08T16:04:22.675Z,14.50
2018-07-08T16:06:52.941Z,13.73
2018-07-08T16:09:22.809Z,6.63
2018-07-08T16:11:52.912Z,4.83
2018-07-08T16:14:22.831Z,5.10
2018-07-08T16:16:52.908Z,3.93
2018-07-08T16:19:23.186Z,6.57
2018-07-08T16:21:53.780Z,7.17
2018-07-08T16:24:23.806Z,6.63
2018-07-08T16:26:53.948Z,4.53
2018-07-08T16:29:24.074Z,5.63
2018-07-08T16:31:54.402Z,6.83
2018-07-08T16:34:24.487Z,3.93
2018-07-08T16:36:55.635Z,3.80
2018-07-08T16:39:25.990Z,4.27
2018-07-08T16:41:56.188Z,4.07
2018-07-08T16:44:26.262Z,5.57
2018-07-08T16:46:56.977Z,3.90
2018-07-08T16:49:27.089Z,4.10
2018-07-08T16:51:57.284Z,6.17
2018-07-08T16:54:27.306Z,5.40
2018-07-08T16:56:57.455Z,4.80
2018-07-08T16:59:27.442Z,4.97
2018-07-08T17:01:57.636Z,21.47
2018-07-08T17:04:27.559Z,7.40
2018-07-08T17:07:03.342Z,5.07
2018-07-08T17:09:33.643Z,10.13
2018-07-08T17:12:04.424Z,17.37
2018-07-08T17:14:34.370Z,21.10
2018-07-08T17:17:04.551Z,7.03
2018-07-08T17:19:34.591Z,12.50
2018-07-08T17:22:04.764Z,4.80
2018-07-08T17:24:34.802Z,13.77
2018-07-08T17:27:05.048Z,4.93
2018-07-08T17:29:35.352Z,6.93
2018-07-08T17:32:05.547Z,5.53
2018-07-08T17:34:35.926Z,9.60
2018-07-08T17:37:06.255Z,11.33
2018-07-08T17:39:36.880Z,7.83
2018-07-08T17:42:07.014Z,8.97
2018-07-08T17:44:37.607Z,5.23
2018-07-08T17:47:07.629Z,5.33
2018-07-08T17:49:38.000Z,6.50
2018-07-08T17:52:08.459Z,6.70
2018-07-08T17:54:38.811Z,7.43
2018-07-08T17:57:08.826Z,4.70
2018-07-08T17:59:39.364Z,7.27
2018-07-08T18:02:09.426Z,6.77
2018-07-08T18:04:39.843Z,4.80
2018-07-08T18:07:10.140Z,4.63
2018-07-08T18:09:40.284Z,5.73
2018-07-08T18:12:10.332Z,3.30
2018-07-08T18:14:40.714Z,4.90
2018-07-08T18:17:10.933Z,4.30
2018-07-08T18:19:41.053Z,5.07
2018-07-08T18:22:11.136Z,3.60
2018-07-08T18:24:41.242Z,4.10
2018-07-08T18:27:11.795Z,4.90
2018-07-08T18:29:41.833Z,5.60
2018-07-08T18:32:12.383Z,5.63
2018-07-08T18:34:42.688Z,3.97
2018-07-08T18:37:13.336Z,6.73
2018-07-08T18:39:44.598Z,4.10
2018-07-08T18:42:14.727Z,4.23
2018-07-08T18:44:44.703Z,3.90
2018-07-08T18:47:14.771Z,4.77
2018-07-08T18:49:45.055Z,5.80
2018-07-08T18:52:15.039Z,6.20
2018-07-08T18:54:45.094Z,7.93
2018-07-08T18:57:15.113Z,7.80
2018-07-08T18:59:45.183Z,9.03
2018-07-08T19:02:15.197Z,12.70
2018-07-08T19:04:45.282Z,9.57
2018-07-08T19:07:15.309Z,8.57
2018-07-08T19:09:45.566Z,10.20
2018-07-08T19:12:15.728Z,9.77
2018-07-08T19:14:46.186Z,11.77
2018-07-08T19:17:16.201Z,12.27
2018-07-08T19:19:46.186Z,9.43
2018-07-08T19:22:16.332Z,7.70
2018-07-08T19:24:46.915Z,9.37
2018-07-08T19:27:17.534Z,7.57
2018-07-08T19:29:47.523Z,9.10
2018-07-08T19:32:17.536Z,12.07
2018-07-08T19:34:47.741Z,14.47
2018-07-08T19:37:18.348Z,11.30
2018-07-08T19:39:48.885Z,12.67
2018-07-08T19:42:19.462Z,16.43
2018-07-08T19:44:49.739Z,16.00
2018-07-08T19:47:20.039Z,14.93
2018-07-08T19:49:50.400Z,13.20
2018-07-08T19:52:20.855Z,15.07
2018-07-08T19:54:50.895Z,14.50
2018-07-08T19:57:21.500Z,12.67
2018-07-08T19:59:51.850Z,16.73
2018-07-08T20:02:22.319Z,14.57
2018-07-08T20:04:52.613Z,14.43
2018-07-08T20:07:22.555Z,18.93
2018-07-08T20:09:52.735Z,21.33
2018-07-08T20:12:22.902Z,27.70
2018-07-08T20:14:53.017Z,25.93
2018-07-08T20:17:23.996Z,25.00
2018-07-08T20:19:54.404Z,25.90
2018-07-08T20:22:25.300Z,14.43
2018-07-08T20:24:55.277Z,17.67
2018-07-08T20:27:25.746Z,23.50
2018-07-08T20:29:55.827Z,20.03
2018-07-08T20:32:26.345Z,14.10
2018-07-08T20:34:57.054Z,11.43
2018-07-08T20:37:27.239Z,11.90
2018-07-08T20:39:57.241Z,18.20
2018-07-08T20:42:27.396Z,20.80
2018-07-08T20:44:57.728Z,28.83
2018-07-08T20:47:28.310Z,23.83
2018-07-08T20:49:58.734Z,21.03
2018-07-08T20:52:28.893Z,10.00
2018-07-08T20:54:59.081Z,14.83
2018-07-08T20:57:29.713Z,14.53
2018-07-08T21:00:00.048Z,13.30
2018-07-08T21:02:30.521Z,12.53
2018-07-08T21:05:00.497Z,8.40
2018-07-08T21:07:30.783Z,11.60
2018-07-08T21:10:00.934Z,8.80
2018-07-08T21:12:31.840Z,9.20
2018-07-08T21:15:02.431Z,11.57
2018-07-08T21:17:32.547Z,15.10
2018-07-08T21:20:03.310Z,14.50
2018-07-08T21:22:33.783Z,9.37
2018-07-08T21:25:03.744Z,12.07
2018-07-08T21:27:34.066Z,12.47
2018-07-08T21:30:04.498Z,15.80
2018-07-08T21:32:35.233Z,11.90
2018-07-08T21:35:05.274Z,8.53
2018-07-08T21:37:35.619Z,6.93
2018-07-08T21:40:05.622Z,7.73
2018-07-08T21:42:35.733Z,5.77
2018-07-08T21:45:06.024Z,9.60
2018-07-08T21:47:36.113Z,6.33
2018-07-08T21:50:06.382Z,9.40
2018-07-08T21:52:36.537Z,7.93
2018-07-08T21:55:07.079Z,8.67
2018-07-08T21:57:37.325Z,6.80
2018-07-08T22:00:08.807Z,7.40
2018-07-08T22:02:38.579Z,6.13
2018-07-08T22:05:09.067Z,7.20
2018-07-08T22:07:44.134Z,6.60
2018-07-08T22:10:14.384Z,6.40
2018-07-08T22:12:44.706Z,7.37
2018-07-08T22:15:14.968Z,7.57
2018-07-08T22:17:45.061Z,7.23
2018-07-08T22:20:15.496Z,9.70
2018-07-08T22:22:45.818Z,7.77
2018-07-08T22:25:16.334Z,8.13
2018-07-08T22:27:46.522Z,7.37
2018-07-08T22:30:16.579Z,10.23
2018-07-08T22:32:46.770Z,7.80
2018-07-08T22:35:17.475Z,7.67
2018-07-08T22:37:47.691Z,11.03
2018-07-08T22:40:17.902Z,9.10
2018-07-08T22:42:47.926Z,12.43
2018-07-08T22:45:18.181Z,7.73
2018-07-08T22:47:48.334Z,9.63
2018-07-08T22:50:18.340Z,7.33
2018-07-08T22:52:48.529Z,9.50
2018-07-08T22:55:18.511Z,8.80
2018-07-08T22:57:48.742Z,7.73
2018-07-08T23:00:29.925Z,10.80
2018-07-08T23:03:14.844Z,7.70
2018-07-08T23:05:44.698Z,9.87
2018-07-08T23:08:14.613Z,9.93
2018-07-08T23:10:45.135Z,7.83
2018-07-08T23:13:15.256Z,10.10
2018-07-08T23:15:45.374Z,9.47
2018-07-08T23:18:15.494Z,8.77
2018-07-08T23:20:45.541Z,10.37
2018-07-08T23:23:15.520Z,11.00
2018-07-08T23:25:45.565Z,8.37
2018-07-08T23:28:16.135Z,8.40
2018-07-08T23:30:46.513Z,8.20
2018-07-08T23:33:17.037Z,8.37
2018-07-08T23:35:47.100Z,8.07
2018-07-08T23:38:17.802Z,9.83
2018-07-08T23:40:47.887Z,8.50
2018-07-08T23:43:18.057Z,9.53
2018-07-08T23:45:48.133Z,9.87
2018-07-08T23:48:18.202Z,9.20
2018-07-08T23:50:48.478Z,8.50
2018-07-08T23:53:18.814Z,8.60
2018-07-08T23:55:49.304Z,12.20
2018-07-08T23:58:19.440Z,12.10
